createdAt,value
2022-09-22T00:00:34.449Z,102102.06
2022-09-22T00:01:39.083Z,102101.38
2022-09-22T00:02:40.871Z,102103.06
2022-09-22T00:03:44.906Z,102110.31
2022-09-22T00:04:46.651Z,102113.84
2022-09-22T00:05:48.459Z,102107.63
2022-09-22T00:06:52.116Z,102105.94
2022-09-22T00:07:55.063Z,102073.59
2022-09-22T00:09:00.874Z,102092.28
2022-09-22T00:10:02.695Z,102081.81
2022-09-22T00:11:06.025Z,102102.53
2022-09-22T00:12:07.851Z,102104.22
2022-09-22T00:13:09.642Z,102103.53
2022-09-22T00:14:15.847Z,102099.97
2022-09-22T00:15:18.179Z,102103.53
2022-09-22T00:16:25.484Z,102094.72
2022-09-22T00:17:27.281Z,102093.75
2022-09-22T00:18:29.638Z,102099.97
2022-09-22T00:19:35.090Z,102097.56
2022-09-22T00:20:39.146Z,102094.72
2022-09-22T00:21:41.010Z,102099.13
2022-09-22T00:22:42.737Z,102091.75
2022-09-22T00:23:44.742Z,102075.00
2022-09-22T00:24:46.418Z,102098.44
2022-09-22T00:25:48.397Z,102092.16
2022-09-22T00:26:51.701Z,102092.28
2022-09-22T00:27:54.480Z,102092.28
2022-09-22T00:28:56.168Z,102088.91
2022-09-22T00:29:58.183Z,102091.47
2022-09-22T00:31:00.015Z,102090.59
2022-09-22T00:32:06.475Z,102090.59
2022-09-22T00:33:10.375Z,102082.50
2022-09-22T00:34:23.607Z,102072.19
2022-09-22T00:35:25.417Z,102081.38
2022-09-22T00:36:28.707Z,102087.91
2022-09-22T00:37:31.049Z,102078.97
2022-09-22T00:38:33.670Z,102083.50
2022-09-22T00:39:35.409Z,102085.50
2022-09-22T00:40:37.878Z,102073.47
2022-09-22T00:41:42.830Z,102082.09
2022-09-22T00:42:45.693Z,102077.56
2022-09-22T00:43:50.540Z,102065.69
2022-09-22T00:44:52.212Z,102084.66
2022-09-22T00:46:12.671Z,102074.72
2022-09-22T00:47:36.100Z,102081.50
2022-09-22T00:48:44.578Z,102075.13
2022-09-22T00:49:49.352Z,102079.81
2022-09-22T00:50:53.886Z,102073.00
2022-09-22T00:51:55.725Z,102083.81
2022-09-22T00:53:03.590Z,102073.31
2022-09-22T00:54:10.234Z,102078.69
2022-09-22T00:55:18.421Z,102065.69
2022-09-22T00:56:25.746Z,102074.31
2022-09-22T00:57:32.411Z,102064.50
2022-09-22T00:58:43.319Z,102074.47
2022-09-22T00:59:47.647Z,102067.38
2022-09-22T01:00:49.796Z,102070.78
2022-09-22T01:01:52.101Z,102067.50
2022-09-22T01:02:58.232Z,102071.91
2022-09-22T01:04:00.038Z,102068.22
2022-09-22T01:05:01.925Z,102067.50
2022-09-22T01:06:06.929Z,102069.50
2022-09-22T01:07:09.977Z,102063.97
2022-09-22T01:08:13.671Z,102064.09
2022-09-22T01:09:16.311Z,102066.81
2022-09-22T01:10:18.408Z,102047.25
2022-09-22T01:11:20.853Z,102068.66
2022-09-22T01:12:31.300Z,102051.50
2022-09-22T01:13:41.233Z,102065.81
2022-09-22T01:14:56.974Z,102053.72
2022-09-22T01:16:27.000Z,102058.59
2022-09-22T01:17:34.629Z,102051.91
2022-09-22T01:19:21.405Z,102049.72
2022-09-22T01:20:48.880Z,102047.03
2022-09-22T01:22:12.143Z,102038.69
2022-09-22T01:23:38.246Z,102055.13
2022-09-22T01:24:52.585Z,102056.59
2022-09-22T01:26:06.385Z,102054.72
2022-09-22T01:27:20.101Z,102041.00
2022-09-22T01:28:55.333Z,102055.72
2022-09-22T01:30:23.349Z,102052.72
2022-09-22T01:31:34.230Z,102047.78
2022-09-22T01:32:46.187Z,102054.31
2022-09-22T01:34:16.098Z,102051.50
2022-09-22T01:35:40.617Z,102055.72
2022-09-22T01:36:51.626Z,102045.41
2022-09-22T01:38:05.194Z,102058.31
2022-09-22T01:39:27.548Z,102049.22
2022-09-22T01:40:52.698Z,102047.22
2022-09-22T01:42:00.145Z,102051.06
2022-09-22T01:43:44.931Z,102047.53
2022-09-22T01:45:02.619Z,102043.53
2022-09-22T01:46:12.616Z,102038.72
2022-09-22T01:47:24.797Z,102038.16
2022-09-22T01:48:29.666Z,102038.44
2022-09-22T01:49:35.432Z,102032.53
2022-09-22T01:50:45.121Z,102040.63
2022-09-22T01:51:54.701Z,102043.31
2022-09-22T01:53:01.321Z,102029.41
2022-09-22T01:54:21.322Z,102032.34
2022-09-22T01:55:31.524Z,102036.75
2022-09-22T01:56:36.282Z,102029.13
2022-09-22T01:57:41.500Z,102031.66
2022-09-22T01:58:48.778Z,102033.66
2022-09-22T01:59:58.279Z,102039.03
2022-09-22T02:01:13.642Z,102018.19
2022-09-22T02:02:38.483Z,102014.66
2022-09-22T02:04:01.924Z,102021.16
2022-09-22T02:05:10.532Z,102026.84
2022-09-22T02:06:23.205Z,102018.03
2022-09-22T02:07:31.123Z,102020.88
2022-09-22T02:08:39.932Z,102020.34
2022-09-22T02:09:43.384Z,102019.47
2022-09-22T02:10:48.038Z,102019.75
2022-09-22T02:11:50.226Z,102019.75
2022-09-22T02:12:52.650Z,102020.06
2022-09-22T02:13:54.692Z,102013.97
2022-09-22T02:14:56.470Z,102012.69
2022-09-22T02:16:01.127Z,102026.44
2022-09-22T02:17:03.085Z,102012.41
2022-09-22T02:18:14.947Z,102016.66
2022-09-22T02:19:24.258Z,102018.19
2022-09-22T02:20:26.423Z,102016.25
2022-09-22T02:21:28.824Z,102011.09
2022-09-22T02:22:32.686Z,102017.50
2022-09-22T02:23:34.494Z,102007.56
2022-09-22T02:24:39.723Z,102012.41
2022-09-22T02:25:44.602Z,102000.22
2022-09-22T02:26:47.111Z,102002.31
2022-09-22T02:27:50.859Z,101995.69
2022-09-22T02:28:55.839Z,102010.56
2022-09-22T02:29:58.986Z,102007.56
2022-09-22T02:31:19.420Z,102009.69
2022-09-22T02:32:23.918Z,102006.41
2022-09-22T02:33:27.939Z,102006.72
2022-09-22T02:34:29.806Z,101998.78
2022-09-22T02:35:35.167Z,101980.94
2022-09-22T02:37:10.826Z,102001.03
2022-09-22T02:38:29.821Z,101988.41
2022-09-22T02:39:46.713Z,102001.75
2022-09-22T02:40:53.985Z,101992.94
2022-09-22T02:42:01.601Z,101993.09
2022-09-22T02:43:15.154Z,101991.25
2022-09-22T02:44:50.346Z,101989.09
2022-09-22T02:46:03.610Z,101991.97
2022-09-22T02:47:13.685Z,101987.72
2022-09-22T02:48:46.866Z,101983.72
2022-09-22T02:49:50.466Z,101987.53
2022-09-22T02:50:53.636Z,101974.13
2022-09-22T02:51:55.499Z,101982.91
2022-09-22T02:53:10.211Z,101971.41
2022-09-22T02:54:14.953Z,101989.13
2022-09-22T02:55:16.648Z,101988.59
2022-09-22T02:56:18.354Z,101978.50
2022-09-22T02:57:21.039Z,101968.44
2022-09-22T02:58:22.837Z,101988.03
2022-09-22T02:59:24.546Z,101989.88
2022-09-22T03:00:26.975Z,101984.63
2022-09-22T03:01:28.915Z,101977.22
2022-09-22T03:02:30.631Z,101987.31
2022-09-22T03:03:32.778Z,101985.63
2022-09-22T03:04:34.679Z,101989.19
2022-09-22T03:05:36.448Z,101976.69
2022-09-22T03:06:38.659Z,101989.19
2022-09-22T03:07:40.355Z,101989.28
2022-09-22T03:08:42.134Z,101992.84
2022-09-22T03:09:43.961Z,101986.59
2022-09-22T03:10:46.022Z,101990.28
2022-09-22T03:11:47.724Z,101990.28
2022-09-22T03:13:14.358Z,101984.88
2022-09-22T03:14:11.278Z,101982.63
2022-09-22T03:15:14.622Z,101986.50
2022-09-22T03:16:16.649Z,101982.06
2022-09-22T03:17:18.387Z,101984.06
2022-09-22T03:18:20.118Z,101954.31
2022-09-22T03:19:21.875Z,101983.19
2022-09-22T03:20:23.667Z,101974.00
2022-09-22T03:21:25.430Z,101976.41
2022-09-22T03:22:27.165Z,101985.19
2022-09-22T03:23:29.049Z,101963.63
2022-09-22T03:24:30.823Z,101984.47
2022-09-22T03:25:32.834Z,101982.50
2022-09-22T03:26:34.931Z,101983.47
2022-09-22T03:27:37.707Z,101982.63
2022-09-22T03:28:39.427Z,101979.91
2022-09-22T03:29:41.225Z,101986.19
2022-09-22T03:30:43.281Z,101987.19
2022-09-22T03:31:45.060Z,101968.91
2022-09-22T03:32:47.325Z,101975.00
2022-09-22T03:33:52.573Z,101969.88
2022-09-22T03:34:54.653Z,101976.41
2022-09-22T03:35:56.329Z,101972.59
2022-09-22T03:36:58.126Z,101981.91
2022-09-22T03:37:59.914Z,101982.78
2022-09-22T03:39:01.826Z,101977.53
2022-09-22T03:40:04.544Z,101971.31
2022-09-22T03:41:06.338Z,101970.44
2022-09-22T03:42:08.605Z,101968.59
2022-09-22T03:43:15.845Z,101975.00
2022-09-22T03:44:18.325Z,101973.00
2022-09-22T03:45:20.144Z,101968.03
2022-09-22T03:46:21.911Z,101973.28
2022-09-22T03:47:23.729Z,101969.72
2022-09-22T03:48:30.187Z,101965.34
2022-09-22T03:49:31.911Z,101963.34
2022-09-22T03:50:33.571Z,101966.19
2022-09-22T03:51:35.396Z,101967.03
2022-09-22T03:52:37.151Z,101958.00
2022-09-22T03:53:39.150Z,101955.31
2022-09-22T03:54:40.861Z,101965.50
2022-09-22T03:55:42.586Z,101964.50
2022-09-22T03:56:44.238Z,101962.81
2022-09-22T03:57:46.023Z,101957.41
2022-09-22T03:58:47.999Z,101960.09
2022-09-22T03:59:49.828Z,101952.03
2022-09-22T04:00:51.685Z,101955.72
2022-09-22T04:01:57.501Z,101958.41
2022-09-22T04:03:00.052Z,101958.25
2022-09-22T04:04:01.986Z,101949.47
2022-09-22T04:05:03.795Z,101947.34
2022-09-22T04:06:06.186Z,101939.44
2022-09-22T04:07:08.110Z,101954.00
2022-09-22T04:08:09.839Z,101933.31
2022-09-22T04:09:11.946Z,101945.53
2022-09-22T04:10:13.921Z,101935.03
2022-09-22T04:11:15.714Z,101945.22
2022-09-22T04:12:17.444Z,101930.91
2022-09-22T04:13:19.438Z,101944.25
2022-09-22T04:14:21.254Z,101950.63
2022-09-22T04:15:22.909Z,101938.16
2022-09-22T04:16:24.625Z,101943.53
2022-09-22T04:17:26.408Z,101937.00
2022-09-22T04:18:29.662Z,101931.19
2022-09-22T04:19:34.874Z,101921.41
2022-09-22T04:20:41.984Z,101942.66
2022-09-22T04:21:43.719Z,101938.16
2022-09-22T04:22:45.529Z,101943.66
2022-09-22T04:23:47.273Z,101942.66
2022-09-22T04:24:48.922Z,101920.44
2022-09-22T04:25:50.721Z,101924.97
2022-09-22T04:27:18.149Z,101942.84
2022-09-22T04:28:14.515Z,101919.13
2022-09-22T04:29:16.284Z,101945.38
2022-09-22T04:30:17.970Z,101921.13
2022-09-22T04:31:19.856Z,101934.88
2022-09-22T04:32:21.619Z,101936.75
2022-09-22T04:33:24.065Z,101934.03
2022-09-22T04:34:25.891Z,101934.03
2022-09-22T04:35:31.137Z,101924.97
2022-09-22T04:36:32.903Z,101936.75
2022-09-22T04:37:35.184Z,101938.69
2022-09-22T04:38:36.902Z,101939.56
2022-09-22T04:39:38.625Z,101942.38
2022-09-22T04:40:40.877Z,101929.38
2022-09-22T04:41:42.607Z,101937.88
2022-09-22T04:42:45.733Z,101938.00
2022-09-22T04:43:47.400Z,101934.75
2022-09-22T04:44:49.229Z,101932.78
2022-09-22T04:45:50.999Z,101935.31
2022-09-22T04:46:52.975Z,101935.59
2022-09-22T04:47:54.683Z,101929.78
2022-09-22T04:48:56.590Z,101939.84
2022-09-22T04:49:58.393Z,101933.19
2022-09-22T04:51:00.185Z,101938.16
2022-09-22T04:52:02.387Z,101930.78
2022-09-22T04:53:04.054Z,101949.78
2022-09-22T04:54:06.026Z,101923.47
2022-09-22T04:55:08.815Z,101941.84
2022-09-22T04:56:10.525Z,101944.53
2022-09-22T04:57:12.320Z,101946.38
2022-09-22T04:58:14.141Z,101949.06
2022-09-22T04:59:15.822Z,101933.91
2022-09-22T05:00:19.466Z,101939.28
2022-09-22T05:01:21.322Z,101944.66
2022-09-22T05:02:23.171Z,101929.09
2022-09-22T05:03:25.114Z,101939.44
2022-09-22T05:04:27.012Z,101938.44
2022-09-22T05:05:29.982Z,101920.59
2022-09-22T05:06:31.726Z,101936.75
2022-09-22T05:07:33.427Z,101938.16
2022-09-22T05:08:35.174Z,101935.88
2022-09-22T05:09:37.018Z,101934.06
2022-09-22T05:10:38.794Z,101932.19
2022-09-22T05:11:40.612Z,101935.75
2022-09-22T05:12:43.210Z,101936.47
2022-09-22T05:13:44.893Z,101937.28
2022-09-22T05:14:46.736Z,101933.47
2022-09-22T05:15:48.431Z,101938.69
2022-09-22T05:16:50.217Z,101931.34
2022-09-22T05:17:53.690Z,101929.34
2022-09-22T05:18:56.167Z,101926.38
2022-09-22T05:19:57.887Z,101922.69
2022-09-22T05:21:00.194Z,101919.69
2022-09-22T05:22:01.926Z,101917.00
2022-09-22T05:23:03.625Z,101926.19
2022-09-22T05:24:05.548Z,101921.34
2022-09-22T05:25:13.091Z,101897.84
2022-09-22T05:26:14.975Z,101917.94
2022-09-22T05:27:16.745Z,101916.81
2022-09-22T05:28:19.489Z,101913.97
2022-09-22T05:29:25.796Z,101920.03
2022-09-22T05:30:29.502Z,101917.63
2022-09-22T05:31:31.286Z,101919.31
2022-09-22T05:32:33.056Z,101921.72
2022-09-22T05:33:34.821Z,101920.59
2022-09-22T05:34:36.524Z,101911.78
2022-09-22T05:35:38.229Z,101919.13
2022-09-22T05:36:40.195Z,101907.63
2022-09-22T05:37:45.994Z,101922.22
2022-09-22T05:38:47.851Z,101920.06
2022-09-22T05:39:49.532Z,101916.06
2022-09-22T05:40:51.421Z,101920.34
2022-09-22T05:41:53.166Z,101920.88
2022-09-22T05:42:55.351Z,101922.44
2022-09-22T05:43:57.087Z,101910.94
2022-09-22T05:44:58.967Z,101918.25
2022-09-22T05:46:01.094Z,101906.06
2022-09-22T05:47:03.039Z,101910.56
2022-09-22T05:48:04.866Z,101912.28
2022-09-22T05:49:06.533Z,101911.13
2022-09-22T05:50:10.150Z,101913.69
2022-09-22T05:51:11.871Z,101913.38
2022-09-22T05:52:13.521Z,101920.47
2022-09-22T05:53:15.554Z,101905.88
2022-09-22T05:54:21.237Z,101921.84
2022-09-22T05:55:24.891Z,101915.31
2022-09-22T05:56:26.558Z,101909.13
2022-09-22T05:57:28.450Z,101916.88
2022-09-22T05:58:30.166Z,101923.09
2022-09-22T06:00:33.704Z,101915.88
2022-09-22T06:01:35.450Z,101918.97
2022-09-22T06:02:37.306Z,101910.47
2022-09-22T06:03:39.037Z,101909.78
2022-09-22T06:04:40.802Z,101917.81
2022-09-22T06:06:45.927Z,101921.91
2022-09-22T06:07:49.182Z,101908.16
2022-09-22T06:08:51.110Z,101917.03
2022-09-22T06:09:52.889Z,101911.81
2022-09-22T06:10:54.562Z,101914.19
2022-09-22T06:11:56.268Z,101905.03
2022-09-22T06:13:10.017Z,101916.72
2022-09-22T06:14:11.848Z,101907.94
2022-09-22T06:15:13.517Z,101913.72
2022-09-22T06:16:15.395Z,101902.84
2022-09-22T06:17:17.079Z,101910.31
2022-09-22T06:18:23.626Z,101909.09
2022-09-22T06:19:26.334Z,101909.78
2022-09-22T06:20:28.569Z,101918.09
2022-09-22T06:21:30.240Z,101908.94
2022-09-22T06:22:31.958Z,101910.00
2022-09-22T06:23:33.889Z,101918.97
2022-09-22T06:24:35.662Z,101915.41
2022-09-22T06:25:37.370Z,101916.59
2022-09-22T06:26:39.061Z,101920.66
2022-09-22T06:27:40.731Z,101907.78
2022-09-22T06:28:42.483Z,101912.56
2022-09-22T06:29:44.285Z,101915.97
2022-09-22T06:30:46.029Z,101896.44
2022-09-22T06:31:49.095Z,101910.56
2022-09-22T06:32:54.763Z,101909.72
2022-09-22T06:33:56.646Z,101890.41
2022-09-22T06:35:01.307Z,101912.94
2022-09-22T06:36:03.173Z,101901.78
2022-09-22T06:37:08.889Z,101888.19
2022-09-22T06:38:14.836Z,101903.84
2022-09-22T06:39:16.737Z,101896.06
2022-09-22T06:40:18.521Z,101902.00
2022-09-22T06:41:20.559Z,101879.09
2022-09-22T06:42:22.419Z,101900.16
2022-09-22T06:43:24.091Z,101898.31
2022-09-22T06:44:26.407Z,101898.31
2022-09-22T06:45:29.552Z,101892.91
2022-09-22T06:46:34.067Z,101892.53
2022-09-22T06:47:36.341Z,101902.72
2022-09-22T06:48:38.158Z,101883.88
2022-09-22T06:49:42.186Z,101896.63
2022-09-22T06:50:52.132Z,101898.44
2022-09-22T06:51:54.836Z,101897.31
2022-09-22T06:53:00.790Z,101886.81
2022-09-22T06:54:05.337Z,101887.66
2022-09-22T06:55:07.811Z,101892.22
2022-09-22T06:56:09.630Z,101887.97
2022-09-22T06:57:12.177Z,101885.25
2022-09-22T06:58:15.603Z,101882.72
2022-09-22T06:59:17.344Z,101886.25
2022-09-22T07:00:19.147Z,101884.44
2022-09-22T07:01:21.039Z,101887.13
2022-09-22T07:02:27.827Z,101889.81
2022-09-22T07:03:29.599Z,101880.56
2022-09-22T07:05:33.583Z,101880.56
2022-09-22T07:06:37.318Z,101880.41
2022-09-22T07:07:39.067Z,101883.81
2022-09-22T07:08:40.726Z,101885.50
2022-09-22T07:09:42.454Z,101886.50
2022-09-22T07:10:44.162Z,101876.41
2022-09-22T07:11:47.543Z,101878.22
2022-09-22T07:12:49.218Z,101878.09
2022-09-22T07:13:53.509Z,101871.31
2022-09-22T07:14:55.851Z,101877.09
2022-09-22T07:16:01.790Z,101885.19
2022-09-22T07:17:03.626Z,101868.75
2022-09-22T07:18:05.574Z,101886.72
2022-09-22T07:19:08.205Z,101869.31
2022-09-22T07:20:10.101Z,101880.31
2022-09-22T07:21:14.489Z,101881.16
2022-09-22T07:22:19.243Z,101880.00
2022-09-22T07:23:21.439Z,101873.22
2022-09-22T07:24:23.163Z,101875.44
2022-09-22T07:25:24.868Z,101881.69
2022-09-22T07:26:30.847Z,101865.41
2022-09-22T07:27:32.643Z,101876.97
2022-09-22T07:28:36.173Z,101864.28
2022-09-22T07:29:38.078Z,101876.00
2022-09-22T07:30:40.339Z,101873.31
2022-09-22T07:31:43.346Z,101857.00
2022-09-22T07:32:45.394Z,101876.84
2022-09-22T07:33:47.261Z,101870.59
2022-09-22T07:34:49.491Z,101874.13
2022-09-22T07:36:22.004Z,101870.81
2022-09-22T07:37:24.264Z,101869.78
2022-09-22T07:38:31.890Z,101863.88
2022-09-22T07:39:33.592Z,101870.97
2022-09-22T07:40:35.505Z,101866.72
2022-09-22T07:41:43.021Z,101867.72
2022-09-22T07:42:48.956Z,101846.22
2022-09-22T07:43:52.874Z,101855.84
2022-09-22T07:45:13.259Z,101872.13
2022-09-22T07:46:33.428Z,101839.34
2022-09-22T07:48:04.429Z,101860.31
2022-09-22T07:49:07.201Z,101860.53
2022-09-22T07:50:09.811Z,101865.41
2022-09-22T07:51:18.368Z,101864.72
2022-09-22T07:52:20.207Z,101856.22
2022-09-22T07:53:22.299Z,101860.94
2022-09-22T07:54:26.211Z,101854.84
2022-09-22T07:55:27.882Z,101855.69
2022-09-22T07:56:31.043Z,101866.03
2022-09-22T07:57:33.888Z,101855.84
2022-09-22T07:58:35.842Z,101867.03
2022-09-22T07:59:38.058Z,101863.34
2022-09-22T08:00:39.961Z,101876.84
2022-09-22T08:01:44.637Z,101861.63
2022-09-22T08:02:56.010Z,101876.84
2022-09-22T08:03:57.785Z,101870.13
2022-09-22T08:05:01.534Z,101865.72
2022-09-22T08:06:10.348Z,101866.72
2022-09-22T08:07:12.538Z,101852.84
2022-09-22T08:08:14.238Z,101866.59
2022-09-22T08:09:16.308Z,101864.03
2022-09-22T08:10:19.623Z,101865.88
2022-09-22T08:11:24.147Z,101856.94
2022-09-22T08:12:26.401Z,101855.91
2022-09-22T08:13:28.322Z,101869.41
2022-09-22T08:14:31.200Z,101853.84
2022-09-22T08:15:32.996Z,101862.31
2022-09-22T08:16:37.060Z,101854.22
2022-09-22T08:17:40.774Z,101852.16
2022-09-22T08:18:42.519Z,101854.09
2022-09-22T08:19:44.207Z,101859.47
2022-09-22T08:20:45.952Z,101857.78
2022-09-22T08:21:50.176Z,101855.22
2022-09-22T08:22:53.922Z,101856.94
2022-09-22T08:23:55.697Z,101850.97
2022-09-22T08:24:57.362Z,101863.19
2022-09-22T08:26:08.544Z,101847.91
2022-09-22T08:27:10.337Z,101861.31
2022-09-22T08:28:12.543Z,101858.63
2022-09-22T08:29:14.306Z,101857.78
2022-09-22T08:30:16.509Z,101863.19
2022-09-22T08:31:20.356Z,101865.88
2022-09-22T08:32:22.081Z,101865.72
2022-09-22T08:33:23.757Z,101864.88
2022-09-22T08:34:25.654Z,101859.81
2022-09-22T08:35:27.975Z,101865.72
2022-09-22T08:36:29.843Z,101863.00
2022-09-22T08:37:32.360Z,101866.41
2022-09-22T08:38:34.606Z,101857.47
2022-09-22T08:39:36.801Z,101854.78
2022-09-22T08:40:39.215Z,101858.31
2022-09-22T08:41:47.646Z,101851.91
2022-09-22T08:42:55.609Z,101850.88
2022-09-22T08:44:01.673Z,101854.28
2022-09-22T08:45:10.722Z,101852.59
2022-09-22T08:46:12.726Z,101839.41
2022-09-22T08:47:40.221Z,101850.88
2022-09-22T08:49:06.039Z,101842.16
2022-09-22T08:50:42.309Z,101846.91
2022-09-22T08:51:55.050Z,101845.94
2022-09-22T08:52:58.971Z,101841.47
2022-09-22T08:54:03.588Z,101848.25
2022-09-22T08:55:11.814Z,101842.16
2022-09-22T08:56:18.940Z,101843.16
2022-09-22T08:57:56.268Z,101840.13
2022-09-22T08:59:03.419Z,101840.53
2022-09-22T09:00:12.412Z,101844.53
2022-09-22T09:01:28.767Z,101849.94
2022-09-22T09:02:44.417Z,101829.97
2022-09-22T09:03:52.102Z,101830.88
2022-09-22T09:05:39.348Z,101836.84
2022-09-22T09:06:49.783Z,101836.53
2022-09-22T09:08:28.624Z,101822.91
2022-09-22T09:09:58.048Z,101837.91
2022-09-22T09:11:08.056Z,101833.66
2022-09-22T09:12:25.192Z,101822.91
2022-09-22T09:13:36.697Z,101829.44
2022-09-22T09:14:40.941Z,101822.34
2022-09-22T09:16:10.394Z,101819.91
2022-09-22T09:17:19.338Z,101824.19
2022-09-22T09:18:28.305Z,101824.31
2022-09-22T09:19:40.662Z,101824.31
2022-09-22T09:20:46.192Z,101817.19
2022-09-22T09:21:52.808Z,101830.72
2022-09-22T09:22:58.798Z,101820.91
2022-09-22T09:25:28.082Z,101826.56
2022-09-22T09:26:32.906Z,101812.13
2022-09-22T09:27:40.930Z,101824.31
2022-09-22T09:28:48.676Z,101813.53
2022-09-22T09:30:01.108Z,101816.94
2022-09-22T09:31:11.413Z,101809.28
2022-09-22T09:32:25.359Z,101813.25
2022-09-22T09:33:40.504Z,101813.06
2022-09-22T09:34:42.947Z,101820.00
2022-09-22T09:35:53.730Z,101805.97
2022-09-22T09:37:07.588Z,101808.53
2022-09-22T09:38:14.888Z,101799.19
2022-09-22T09:39:24.430Z,101811.91
2022-09-22T09:40:27.695Z,101800.41
2022-09-22T09:41:32.716Z,101796.03
2022-09-22T09:42:36.834Z,101805.81
2022-09-22T09:43:42.783Z,101798.19
2022-09-22T09:44:46.812Z,101791.09
2022-09-22T09:46:24.875Z,101797.75
2022-09-22T09:47:59.337Z,101797.56
2022-09-22T09:49:09.020Z,101771.38
2022-09-22T09:50:12.034Z,101789.47
2022-09-22T09:51:14.359Z,101790.66
2022-09-22T09:52:16.174Z,101779.81
2022-09-22T09:53:40.932Z,101789.44
2022-09-22T09:54:44.695Z,101796.56
2022-09-22T09:55:46.497Z,101775.69
2022-09-22T09:57:03.232Z,101786.94
2022-09-22T09:58:05.223Z,101795.72
2022-09-22T09:59:29.592Z,101788.97
2022-09-22T10:00:34.659Z,101777.47
2022-09-22T10:01:42.350Z,101780.84
2022-09-22T10:03:00.071Z,101769.38
2022-09-22T10:04:01.997Z,101784.59
2022-09-22T10:05:19.623Z,101774.13
2022-09-22T10:06:26.539Z,101781.91
2022-09-22T10:08:44.755Z,101776.50
2022-09-22T10:09:49.835Z,101777.50
2022-09-22T10:10:59.407Z,101777.50
2022-09-22T10:12:02.580Z,101774.13
2022-09-22T10:13:04.253Z,101775.50
2022-09-22T10:14:19.154Z,101761.94
2022-09-22T10:15:26.409Z,101758.22
2022-09-22T10:16:30.526Z,101762.78
2022-09-22T10:17:40.976Z,101770.91
2022-09-22T10:18:42.659Z,101758.94
2022-09-22T10:19:44.446Z,101752.50
2022-09-22T10:20:46.198Z,101730.94
2022-09-22T10:21:49.011Z,101761.13
2022-09-22T10:22:50.826Z,101747.75
2022-09-22T10:24:00.466Z,101754.19
2022-09-22T10:25:04.189Z,101752.69
2022-09-22T10:26:29.418Z,101752.06
2022-09-22T10:27:32.154Z,101750.19
2022-09-22T10:28:36.427Z,101732.59
2022-09-22T10:29:42.301Z,101743.59
2022-09-22T10:30:57.441Z,101747.81
2022-09-22T10:31:59.766Z,101748.34
2022-09-22T10:33:25.706Z,101748.16
2022-09-22T10:34:35.387Z,101746.16
2022-09-22T10:35:38.202Z,101729.56
2022-09-22T10:36:45.734Z,101741.94
2022-09-22T10:37:48.574Z,101735.31
2022-09-22T10:38:51.651Z,101746.47
2022-09-22T10:40:00.704Z,101727.38
2022-09-22T10:41:07.973Z,101741.06
2022-09-22T10:42:41.016Z,101737.34
2022-09-22T10:44:03.184Z,101743.66
2022-09-22T10:45:19.501Z,101721.00
2022-09-22T10:46:50.942Z,101739.94
2022-09-22T10:48:29.195Z,101735.34
2022-09-22T10:50:00.831Z,101742.31
2022-09-22T10:51:15.886Z,101738.25
2022-09-22T10:52:29.643Z,101734.03
2022-09-22T10:53:55.690Z,101733.03
2022-09-22T10:55:06.657Z,101736.56
2022-09-22T10:56:27.832Z,101733.88
2022-09-22T10:57:41.427Z,101730.16
2022-09-22T10:59:16.813Z,101732.03
2022-09-22T11:00:22.384Z,101730.00
2022-09-22T11:01:42.153Z,101729.31
2022-09-22T11:02:49.757Z,101703.09
2022-09-22T11:04:26.878Z,101729.47
2022-09-22T11:06:08.863Z,101723.72
2022-09-22T11:07:46.699Z,101728.66
2022-09-22T11:11:15.818Z,101720.22
2022-09-22T11:12:33.006Z,101714.81
2022-09-22T11:13:54.902Z,101720.53
2022-09-22T11:15:05.610Z,101714.47
2022-09-22T11:16:28.712Z,101718.84
2022-09-22T11:17:53.423Z,101717.84
2022-09-22T11:19:06.271Z,101716.97
2022-09-22T11:20:32.511Z,101714.13
2022-09-22T11:21:52.217Z,101714.13
2022-09-22T11:23:30.811Z,101708.53
2022-09-22T11:24:37.792Z,101704.00
2022-09-22T11:26:01.967Z,101702.63
2022-09-22T11:27:04.529Z,101669.47
2022-09-22T11:28:43.737Z,101698.25
2022-09-22T11:30:11.270Z,101690.16
2022-09-22T11:31:39.094Z,101690.97
2022-09-22T11:32:47.218Z,101693.84
2022-09-22T11:34:00.174Z,101692.50
2022-09-22T11:35:33.175Z,101697.25
2022-09-22T11:36:51.480Z,101691.16
2022-09-22T11:38:18.190Z,101686.75
2022-09-22T11:39:34.989Z,101688.44
2022-09-22T11:41:14.138Z,101686.91
2022-09-22T11:42:27.153Z,101699.59
2022-09-22T11:43:57.034Z,101687.59
2022-09-22T11:45:51.855Z,101688.47
2022-09-22T11:47:30.731Z,101685.41
2022-09-22T11:48:50.481Z,101681.34
2022-09-22T11:50:19.662Z,101679.00
2022-09-22T11:51:29.278Z,101682.38
2022-09-22T11:52:51.195Z,101670.19
2022-09-22T11:54:01.747Z,101679.00
2022-09-22T11:55:36.732Z,101668.31
2022-09-22T11:56:51.968Z,101666.16
2022-09-22T11:57:58.775Z,101670.88
2022-09-22T11:59:12.102Z,101665.63
2022-09-22T12:00:18.915Z,101663.09
2022-09-22T12:01:29.859Z,101640.94
2022-09-22T12:03:05.057Z,101656.69
2022-09-22T12:04:09.198Z,101657.88
2022-09-22T12:05:22.138Z,101653.63
2022-09-22T12:06:29.421Z,101651.94
2022-09-22T12:07:44.945Z,101651.94
2022-09-22T12:09:02.859Z,101655.34
2022-09-22T12:10:13.524Z,101631.34
2022-09-22T12:11:17.935Z,101636.41
2022-09-22T12:12:22.302Z,101646.53
2022-09-22T12:13:27.437Z,101644.84
2022-09-22T12:14:30.024Z,101651.09
2022-09-22T12:15:42.916Z,101648.03
2022-09-22T12:17:06.071Z,101638.59
2022-09-22T12:18:15.135Z,101641.47
2022-09-22T12:19:31.974Z,101639.63
2022-09-22T12:20:48.402Z,101637.59
2022-09-22T12:22:05.169Z,101643.00
2022-09-22T12:23:31.106Z,101639.00
2022-09-22T12:24:34.701Z,101619.50
2022-09-22T12:25:49.235Z,101628.31
2022-09-22T12:26:51.830Z,101624.78
2022-09-22T12:27:56.648Z,101615.28
2022-09-22T12:29:01.160Z,101612.75
2022-09-22T12:30:13.429Z,101617.47
2022-09-22T12:31:19.007Z,101623.09
2022-09-22T12:32:25.128Z,101633.06
2022-09-22T12:33:28.471Z,101623.09
2022-09-22T12:34:39.325Z,101620.53
2022-09-22T12:35:42.020Z,101618.00
2022-09-22T12:36:44.567Z,101617.47
2022-09-22T12:37:46.437Z,101604.31
2022-09-22T12:38:48.229Z,101619.69
2022-09-22T12:39:50.331Z,101622.09
2022-09-22T12:40:58.259Z,101614.28
2022-09-22T12:42:27.163Z,101611.94
2022-09-22T12:43:30.919Z,101599.44
2022-09-22T12:44:43.221Z,101609.06
2022-09-22T12:45:45.478Z,101607.69
2022-09-22T12:46:48.890Z,101608.72
2022-09-22T12:47:53.589Z,101603.66
2022-09-22T12:48:55.458Z,101610.59
2022-09-22T12:49:59.163Z,101596.22
2022-09-22T12:51:26.374Z,101607.34
2022-09-22T12:52:37.170Z,101598.91
2022-09-22T12:53:43.150Z,101592.50
2022-09-22T12:54:46.995Z,101599.91
2022-09-22T12:55:49.947Z,101605.50
2022-09-22T12:58:20.911Z,101595.19
2022-09-22T12:59:56.866Z,101610.75